Time;durP1;ratioP1;P1;durP2;ratioP2;P2;SDS_P1;SDS_P2;PMS_P1;PMS_P2;Temp;Humidity;BMP_temperature;BMP_pressure;BME280_temperature;BME280_humidity;BME280_pressure;Samples;Min_cycle;Max_cycle;Signal;HPM_P1;HPM_P2
2022/09/07 00:02:12;;;;;;;4.80;1.10;;;;;;;;;;5064490;28;20381;-66
2022/09/07 00:04:37;;;;;;;9.07;1.37;;;;;;;;;;5065918;28;20033;-66
2022/09/07 00:07:02;;;;;;;14.03;1.70;;;;;;;;;;5059221;28;20628;-66
2022/09/07 00:09:27;;;;;;;11.93;2.07;;;;;;;;;;5067000;28;20638;-67
2022/09/07 00:11:53;;;;;;;14.70;1.77;;;;;;;;;;5062813;28;20092;-67
2022/09/07 00:14:18;;;;;;;8.95;2.40;;;;;;;;;;5064315;28;20268;-66
2022/09/07 00:16:43;;;;;;;8.20;1.75;;;;;;;;;;5061941;28;20416;-66
2022/09/07 00:19:08;;;;;;;12.40;3.00;;;;;;;;;;5066691;28;20029;-66
2022/09/07 00:21:33;;;;;;;10.33;2.00;;;;;;;;;;5064606;28;20384;-66
2022/09/07 00:23:59;;;;;;;10.13;2.53;;;;;;;;;;5067781;28;20044;-66
2022/09/07 00:26:28;;;;;;;14.87;2.77;;;;;;;;;;5042102;28;20998;-65
2022/09/07 00:28:57;;;;;;;5.25;1.70;;;;;;;;;;5063047;28;20029;-65
2022/09/07 00:31:22;;;;;;;16.35;2.83;;;;;;;;;;5065527;28;20013;-65
2022/09/07 00:33:48;;;;;;;8.83;1.97;;;;;;;;;;5068162;28;20082;-65
2022/09/07 00:36:14;;;;;;;12.05;1.83;;;;;;;;;;5060776;28;20312;-65
2022/09/07 00:38:39;;;;;;;13.18;2.38;;;;;;;;;;5067882;28;20389;-65
2022/09/07 00:41:05;;;;;;;8.40;1.80;;;;;;;;;;5060256;28;20013;-65
2022/09/07 00:43:30;;;;;;;10.07;2.40;;;;;;;;;;5057769;28;20016;-65
2022/09/07 00:45:55;;;;;;;8.50;1.92;;;;;;;;;;5067820;28;20283;-65
2022/09/07 00:48:21;;;;;;;8.90;2.27;;;;;;;;;;5068551;28;20016;-65
2022/09/07 00:50:50;;;;;;;8.25;1.98;;;;;;;;;;5067931;28;20291;-65
2022/09/07 00:53:29;;;;;;;10.75;2.28;;;;;;;;;;5063784;28;20377;-65
2022/09/07 00:55:55;;;;;;;9.18;2.28;;;;;;;;;;5063478;28;20028;-65
2022/09/07 00:58:21;;;;;;;5.97;1.50;;;;;;;;;;5064991;28;20017;-65
2022/09/07 01:00:47;;;;;;;7.50;1.40;;;;;;;;;;5065162;28;20094;-65
2022/09/07 01:03:13;;;;;;;7.45;1.30;;;;;;;;;;5067508;28;20108;-65
2022/09/07 01:05:44;;;;;;;5.63;1.30;;;;;;;;;;5067419;28;20497;-65
2022/09/07 01:08:09;;;;;;;;;;;;;;;;;;5066214;28;20020;-65
2022/09/07 01:10:34;;;;;;;7.32;1.42;;;;;;;;;;5063199;28;19969;-65
2022/09/07 01:12:59;;;;;;;5.35;1.20;;;;;;;;;;5060346;28;20024;-65
2022/09/07 01:15:30;;;;;;;8.37;1.43;;;;;;;;;;5062455;28;20036;-65
2022/09/07 01:18:05;;;;;;;5.35;1.60;;;;;;;;;;5065950;28;20271;-65
2022/09/07 01:20:49;;;;;;;4.03;1.27;;;;;;;;;;5067546;28;20025;-67
2022/09/07 01:23:29;;;;;;;6.50;1.35;;;;;;;;;;5062088;28;20056;-65
2022/09/07 01:26:07;;;;;;;6.18;1.15;;;;;;;;;;5061885;28;20489;-65
2022/09/07 01:28:33;;;;;;;6.93;1.83;;;;;;;;;;5061940;28;20029;-65
2022/09/07 01:31:05;;;;;;;7.70;1.48;;;;;;;;;;5066750;28;20024;-65
2022/09/07 01:33:43;;;;;;;2.83;1.17;;;;;;;;;;5063780;28;20021;-65
2022/09/07 01:36:23;;;;;;;7.60;1.58;;;;;;;;;;5066677;28;20032;-65
2022/09/07 01:38:53;;;;;;;4.15;1.35;;;;;;;;;;5069658;28;20020;-65
2022/09/07 01:41:18;;;;;;;;;;;;;;;;;;5066147;28;20020;-65
2022/09/07 01:43:50;;;;;;;3.72;1.25;;;;;;;;;;5065707;28;19963;-65
2022/09/07 01:46:17;;;;;;;5.72;1.45;;;;;;;;;;5063780;28;20267;-64
2022/09/07 01:48:43;;;;;;;5.88;1.05;;;;;;;;;;5070842;28;20385;-64
2022/09/07 01:51:10;;;;;;;4.30;1.20;;;;;;;;;;5067500;28;20111;-64
2022/09/07 01:53:59;;;;;;;5.55;1.10;;;;;;;;;;5069838;28;20016;-64
2022/09/07 01:56:33;;;;;;;6.75;1.52;;;;;;;;;;5064598;28;20032;-64
2022/09/07 01:59:11;;;;;;;6.18;1.30;;;;;;;;;;5053407;28;20048;-64
2022/09/07 02:01:42;;;;;;;3.95;1.20;;;;;;;;;;5059866;28;20473;-64
2022/09/07 02:04:26;;;;;;;3.03;1.20;;;;;;;;;;5062671;28;20712;-65
2022/09/07 02:06:57;;;;;;;7.18;1.27;;;;;;;;;;5069388;28;20504;-64
2022/09/07 02:09:42;;;;;;;5.40;1.35;;;;;;;;;;5069670;28;20066;-64
2022/09/07 02:12:15;;;;;;;4.00;1.20;;;;;;;;;;5066283;28;21180;-64
2022/09/07 02:14:43;;;;;;;3.75;1.35;;;;;;;;;;5068840;28;20029;-64
2022/09/07 02:17:12;;;;;;;3.15;1.33;;;;;;;;;;5068670;28;20055;-64
2022/09/07 02:19:41;;;;;;;5.43;1.20;;;;;;;;;;5067862;28;20052;-64
2022/09/07 02:22:08;;;;;;;5.82;1.17;;;;;;;;;;5068572;28;20077;-64
2022/09/07 02:24:36;;;;;;;9.02;1.70;;;;;;;;;;5068277;28;20532;-64
2022/09/07 02:27:04;;;;;;;8.82;2.00;;;;;;;;;;5070343;28;20059;-64
2022/09/07 02:29:31;;;;;;;6.60;1.65;;;;;;;;;;5061706;28;20195;-64
2022/09/07 02:31:56;;;;;;;5.38;1.23;;;;;;;;;;5069815;28;20333;-64
2022/09/07 02:34:21;;;;;;;4.93;1.50;;;;;;;;;;5066273;28;20023;-64
2022/09/07 02:36:47;;;;;;;4.00;1.07;;;;;;;;;;5060344;28;20279;-64
2022/09/07 02:39:12;;;;;;;2.95;1.48;;;;;;;;;;5067222;28;20281;-64
2022/09/07 02:41:39;;;;;;;3.33;1.23;;;;;;;;;;5065422;28;20033;-64
2022/09/07 02:44:06;;;;;;;4.68;1.50;;;;;;;;;;5060778;28;20036;-64
2022/09/07 02:46:43;;;;;;;4.72;1.40;;;;;;;;;;5062486;28;20023;-64
2022/09/07 02:49:27;;;;;;;3.65;1.10;;;;;;;;;;5062835;28;20024;-64
2022/09/07 02:51:58;;;;;;;3.55;1.20;;;;;;;;;;5065620;28;20505;-64
2022/09/07 02:54:23;;;;;;;3.67;1.35;;;;;;;;;;5062786;28;20021;-64
2022/09/07 02:56:49;;;;;;;3.03;1.08;;;;;;;;;;5069270;28;20074;-64
2022/09/07 02:59:31;;;;;;;5.80;1.83;;;;;;;;;;5067802;28;20031;-64
2022/09/07 03:01:56;;;;;;;4.15;1.50;;;;;;;;;;5062839;28;20039;-64
2022/09/07 03:04:37;;;;;;;3.33;1.50;;;;;;;;;;5064512;28;20025;-64
2022/09/07 03:07:13;;;;;;;2.92;1.40;;;;;;;;;;5065488;28;20024;-64
2022/09/07 03:09:41;;;;;;;4.60;1.55;;;;;;;;;;5063202;28;20181;-64
2022/09/07 03:12:06;;;;;;;6.28;1.60;;;;;;;;;;5069426;28;20119;-64
2022/09/07 03:14:32;;;;;;;5.15;1.60;;;;;;;;;;5067623;28;20153;-64
2022/09/07 03:16:57;;;;;;;7.82;1.48;;;;;;;;;;5068976;28;20421;-64
2022/09/07 03:19:23;;;;;;;3.17;1.88;;;;;;;;;;5064401;28;20109;-64
2022/09/07 03:21:48;;;;;;;4.43;1.80;;;;;;;;;;5064868;28;20237;-64
2022/09/07 03:24:13;;;;;;;4.47;1.70;;;;;;;;;;5066409;28;20043;-64
2022/09/07 03:26:48;;;;;;;3.25;1.20;;;;;;;;;;5066561;28;20784;-64
2022/09/07 03:29:13;;;;;;;3.47;1.73;;;;;;;;;;5062447;28;20030;-64
2022/09/07 03:31:38;;;;;;;4.03;1.20;;;;;;;;;;5066100;28;20020;-64
2022/09/07 03:34:04;;;;;;;3.67;1.27;;;;;;;;;;5065524;28;20788;-64
2022/09/07 03:36:29;;;;;;;5.13;1.60;;;;;;;;;;5061839;28;20401;-64
2022/09/07 03:38:55;;;;;;;4.05;1.20;;;;;;;;;;5062693;28;20363;-64
2022/09/07 03:41:20;;;;;;;4.85;1.40;;;;;;;;;;5058084;28;20060;-64
2022/09/07 03:43:46;;;;;;;4.70;1.35;;;;;;;;;;5055630;28;20046;-64
2022/09/07 03:46:13;;;;;;;2.20;1.35;;;;;;;;;;5065914;28;20560;-64
2022/09/07 03:48:38;;;;;;;2.60;1.42;;;;;;;;;;5060633;28;20121;-64
2022/09/07 03:51:05;;;;;;;14.45;1.88;;;;;;;;;;5060355;28;20115;-64
2022/09/07 03:53:31;;;;;;;6.72;1.25;;;;;;;;;;5066739;28;20103;-64
2022/09/07 03:56:00;;;;;;;3.47;1.55;;;;;;;;;;5065008;28;20108;-64
2022/09/07 03:58:27;;;;;;;4.55;1.67;;;;;;;;;;5066089;28;20480;-64
2022/09/07 04:00:52;;;;;;;2.78;1.25;;;;;;;;;;5063298;28;20032;-64
2022/09/07 04:03:17;;;;;;;6.63;1.70;;;;;;;;;;5066871;28;20077;-65
2022/09/07 04:05:42;;;;;;;3.70;1.63;;;;;;;;;;5062419;28;20279;-64
2022/09/07 04:08:07;;;;;;;3.40;1.40;;;;;;;;;;5067858;28;20278;-64
2022/09/07 04:10:37;;;;;;;4.70;1.77;;;;;;;;;;5063551;28;20021;-64
2022/09/07 04:13:02;;;;;;;4.33;1.77;;;;;;;;;;5059353;28;20017;-64
2022/09/07 04:15:27;;;;;;;4.50;1.83;;;;;;;;;;5065890;28;20259;-64
2022/09/07 04:17:52;;;;;;;7.57;2.00;;;;;;;;;;5063008;28;20033;-64
2022/09/07 04:20:17;;;;;;;5.00;2.17;;;;;;;;;;5070186;28;20032;-64
2022/09/07 04:22:46;;;;;;;5.67;1.90;;;;;;;;;;5064335;28;20315;-64
2022/09/07 04:25:11;;;;;;;7.18;2.40;;;;;;;;;;5063759;28;20031;-64
2022/09/07 04:27:36;;;;;;;4.97;2.20;;;;;;;;;;5065069;28;20020;-64
2022/09/07 04:30:01;;;;;;;6.57;2.10;;;;;;;;;;5059984;28;20029;-64
2022/09/07 04:32:26;;;;;;;2.95;1.85;;;;;;;;;;5068533;28;20114;-65
2022/09/07 04:34:53;;;;;;;3.22;2.20;;;;;;;;;;5064818;28;20036;-64
2022/09/07 04:37:18;;;;;;;5.82;2.53;;;;;;;;;;5066864;28;20074;-64
2022/09/07 04:39:43;;;;;;;7.70;2.70;;;;;;;;;;5064712;28;20024;-64
2022/09/07 04:42:08;;;;;;;6.20;2.78;;;;;;;;;;5061358;28;20147;-64
2022/09/07 04:44:33;;;;;;;5.93;2.90;;;;;;;;;;5058379;28;20086;-64
2022/09/07 04:46:59;;;;;;;8.43;3.00;;;;;;;;;;5062080;28;20863;-64
2022/09/07 04:49:24;;;;;;;6.78;2.90;;;;;;;;;;5066977;28;20287;-64
2022/09/07 04:51:49;;;;;;;6.50;3.50;;;;;;;;;;5063609;28;20028;-64
2022/09/07 04:54:14;;;;;;;6.83;2.97;;;;;;;;;;5065655;28;20345;-64
2022/09/07 04:56:39;;;;;;;9.25;3.25;;;;;;;;;;5062019;28;20109;-64
2022/09/07 04:59:05;;;;;;;6.27;3.33;;;;;;;;;;5065879;28;20019;-64
2022/09/07 05:01:30;;;;;;;6.53;3.72;;;;;;;;;;5060870;28;20686;-64
2022/09/07 05:03:57;;;;;;;4.38;3.03;;;;;;;;;;5063423;28;20028;-64
2022/09/07 05:06:24;;;;;;;7.00;3.50;;;;;;;;;;5063408;28;20174;-64
2022/09/07 05:08:50;;;;;;;8.48;4.00;;;;;;;;;;5068560;28;20078;-64
2022/09/07 05:11:16;;;;;;;10.25;4.40;;;;;;;;;;5067608;28;20024;-64
2022/09/07 05:13:41;;;;;;;13.68;5.30;;;;;;;;;;5070208;28;20024;-64
2022/09/07 05:16:11;;;;;;;10.07;5.03;;;;;;;;;;5067150;28;20013;-64
2022/09/07 05:18:36;;;;;;;9.07;5.07;;;;;;;;;;5065561;28;20017;-64
2022/09/07 05:21:12;;;;;;;11.52;4.78;;;;;;;;;;5067752;28;20035;-64
2022/09/07 05:23:37;;;;;;;13.18;5.55;;;;;;;;;;5069222;28;20020;-64
2022/09/07 05:26:03;;;;;;;11.20;5.07;;;;;;;;;;5065816;28;20035;-64
2022/09/07 05:28:28;;;;;;;12.10;5.00;;;;;;;;;;5068597;28;20291;-64
2022/09/07 05:30:53;;;;;;;8.90;4.80;;;;;;;;;;5068539;28;20024;-64
2022/09/07 05:33:18;;;;;;;9.20;4.80;;;;;;;;;;5066151;28;20445;-64
2022/09/07 05:35:43;;;;;;;10.00;4.50;;;;;;;;;;5058861;28;20032;-64
2022/09/07 05:38:08;;;;;;;8.25;4.57;;;;;;;;;;5061856;28;20029;-64
2022/09/07 05:40:34;;;;;;;9.90;4.37;;;;;;;;;;5062944;28;20044;-64
2022/09/07 05:42:59;;;;;;;8.03;4.23;;;;;;;;;;5066734;28;20324;-64
2022/09/07 05:45:24;;;;;;;6.23;3.50;;;;;;;;;;5063900;28;20335;-64
2022/09/07 05:47:49;;;;;;;5.47;2.57;;;;;;;;;;5062870;28;20290;-65
2022/09/07 05:50:15;;;;;;;7.53;3.50;;;;;;;;;;5070185;28;20789;-64
2022/09/07 05:52:40;;;;;;;7.97;4.18;;;;;;;;;;5070260;28;20020;-64
2022/09/07 05:55:05;;;;;;;6.50;3.50;;;;;;;;;;5064571;28;20036;-64
2022/09/07 05:57:30;;;;;;;9.93;4.38;;;;;;;;;;5060258;28;20055;-64
2022/09/07 05:59:56;;;;;;;10.60;3.50;;;;;;;;;;5060085;28;20063;-64
2022/09/07 06:02:21;;;;;;;9.63;3.57;;;;;;;;;;5061786;28;20478;-64
2022/09/07 06:04:46;;;;;;;7.93;2.10;;;;;;;;;;5071921;28;20271;-64
2022/09/07 06:07:12;;;;;;;7.75;3.13;;;;;;;;;;5063989;28;20024;-64
2022/09/07 06:09:37;;;;;;;5.55;2.63;;;;;;;;;;5070424;28;20029;-64
2022/09/07 06:12:04;;;;;;;3.40;1.52;;;;;;;;;;5065333;28;20372;-65
2022/09/07 06:14:29;;;;;;;4.80;2.78;;;;;;;;;;5063125;28;20021;-64
2022/09/07 06:16:54;;;;;;;7.40;3.00;;;;;;;;;;5066574;28;20031;-64
2022/09/07 06:19:19;;;;;;;6.70;2.88;;;;;;;;;;5067594;28;20294;-64
2022/09/07 06:21:44;;;;;;;6.55;3.45;;;;;;;;;;5070999;28;20056;-64
2022/09/07 06:26:37;;;;;;;11.38;5.38;;;;;;;;;;5013678;28;20085;-66
2022/09/07 06:29:02;;;;;;;7.15;3.80;;;;;;;;;;5010698;28;20057;-66
2022/09/07 06:31:28;;;;;;;15.80;6.35;;;;;;;;;;5010050;28;20101;-66
2022/09/07 06:33:53;;;;;;;19.45;10.23;;;;;;;;;;5010192;28;20124;-66
2022/09/07 06:36:20;;;;;;;14.70;5.38;;;;;;;;;;5010283;28;20022;-66
2022/09/07 06:38:46;;;;;;;22.60;9.88;;;;;;;;;;5013107;28;20036;-66
2022/09/07 06:41:18;;;;;;;22.35;11.25;;;;;;;;;;5017242;28;20022;-66
2022/09/07 06:43:44;;;;;;;21.98;12.48;;;;;;;;;;5009826;28;20116;-66
2022/09/07 06:46:09;;;;;;;22.65;10.23;;;;;;;;;;5011532;28;20109;-66
2022/09/07 06:48:34;;;;;;;23.00;10.35;;;;;;;;;;5011702;28;20030;-66
2022/09/07 06:51:04;;;;;;;24.80;11.68;;;;;;;;;;5011216;28;20382;-66
2022/09/07 06:53:30;;;;;;;25.80;11.85;;;;;;;;;;5000082;28;20029;-67
2022/09/07 06:55:55;;;;;;;27.33;14.23;;;;;;;;;;5005229;28;20029;-66
2022/09/07 06:58:20;;;;;;;28.65;13.90;;;;;;;;;;5014545;28;20025;-65
2022/09/07 07:00:46;;;;;;;28.35;15.30;;;;;;;;;;5022409;28;20034;-66
2022/09/07 07:03:11;;;;;;;29.75;14.85;;;;;;;;;;5010373;28;20386;-65
2022/09/07 07:05:36;;;;;;;29.00;16.67;;;;;;;;;;5009469;28;20032;-66
2022/09/07 07:08:02;;;;;;;34.60;18.38;;;;;;;;;;5010510;28;20486;-66
2022/09/07 07:10:27;;;;;;;42.45;17.88;;;;;;;;;;5009171;28;20378;-66
2022/09/07 07:12:55;;;;;;;27.05;16.05;;;;;;;;;;5008283;28;20064;-66
2022/09/07 07:15:21;;;;;;;33.63;19.20;;;;;;;;;;5007337;28;20121;-66
2022/09/07 07:17:46;;;;;;;27.92;17.95;;;;;;;;;;5010395;28;20092;-66
2022/09/07 07:20:11;;;;;;;35.43;19.17;;;;;;;;;;5011250;28;20159;-66
2022/09/07 07:22:36;;;;;;;31.17;16.63;;;;;;;;;;5009987;28;20466;-66
2022/09/07 07:25:01;;;;;;;24.77;15.23;;;;;;;;;;5009606;28;20288;-66
2022/09/07 07:27:28;;;;;;;33.70;18.80;;;;;;;;;;5007735;28;20300;-66
2022/09/07 07:29:54;;;;;;;32.22;19.50;;;;;;;;;;5009676;28;20289;-66
2022/09/07 07:32:19;;;;;;;31.60;19.88;;;;;;;;;;5009206;28;20037;-66
2022/09/07 07:34:44;;;;;;;34.45;20.58;;;;;;;;;;4992456;28;20053;-66
2022/09/07 07:37:09;;;;;;;26.83;16.70;;;;;;;;;;5007984;28;20461;-67
2022/09/07 07:39:34;;;;;;;27.30;17.40;;;;;;;;;;5007913;28;20284;-66
2022/09/07 07:41:59;;;;;;;23.00;13.93;;;;;;;;;;5008217;28;20024;-66
2022/09/07 07:44:25;;;;;;;21.83;14.15;;;;;;;;;;5014973;28;20749;-67
2022/09/07 07:46:50;;;;;;;17.42;12.82;;;;;;;;;;5009990;28;20033;-66
2022/09/07 07:49:15;;;;;;;14.07;10.37;;;;;;;;;;5008710;28;20084;-67
2022/09/07 07:51:40;;;;;;;20.60;11.38;;;;;;;;;;5009222;28;20018;-67
2022/09/07 07:54:05;;;;;;;17.20;11.40;;;;;;;;;;5010172;28;20467;-67
2022/09/07 07:56:31;;;;;;;16.80;10.65;;;;;;;;;;5010846;28;20034;-67
2022/09/07 07:58:56;;;;;;;16.48;10.45;;;;;;;;;;5010639;28;20107;-67
2022/09/07 08:01:21;;;;;;;14.93;8.87;;;;;;;;;;5008732;28;20018;-67
2022/09/07 08:03:47;;;;;;;17.47;11.27;;;;;;;;;;5009038;28;20323;-66
2022/09/07 08:06:16;;;;;;;13.93;10.30;;;;;;;;;;5008601;28;20025;-67
2022/09/07 08:08:42;;;;;;;15.73;10.60;;;;;;;;;;5010545;28;20045;-67
2022/09/07 08:11:08;;;;;;;12.55;9.80;;;;;;;;;;5010237;28;20067;-66
2022/09/07 08:13:34;;;;;;;15.63;10.30;;;;;;;;;;5010928;28;20110;-66
2022/09/07 08:15:59;;;;;;;14.40;9.07;;;;;;;;;;5010362;28;20092;-67
2022/09/07 08:18:24;;;;;;;18.33;10.00;;;;;;;;;;5010539;28;20472;-67
2022/09/07 08:20:49;;;;;;;13.02;8.80;;;;;;;;;;5009635;28;20694;-67
2022/09/07 08:23:15;;;;;;;14.52;9.30;;;;;;;;;;5010113;28;20017;-67
2022/09/07 08:25:50;;;;;;;9.82;8.02;;;;;;;;;;5010192;28;20133;-66
2022/09/07 08:28:15;;;;;;;10.48;7.82;;;;;;;;;;5009587;28;20026;-67
2022/09/07 08:30:40;;;;;;;11.65;8.48;;;;;;;;;;5024603;28;20028;-66
2022/09/07 08:33:05;;;;;;;17.53;9.27;;;;;;;;;;5012810;28;20034;-67
2022/09/07 08:35:30;;;;;;;13.77;8.02;;;;;;;;;;5009475;28;20100;-67
2022/09/07 08:37:55;;;;;;;14.68;6.85;;;;;;;;;;5010964;28;20030;-67
2022/09/07 08:40:20;;;;;;;14.17;6.73;;;;;;;;;;5010180;28;20022;-67
2022/09/07 08:42:52;;;;;;;12.43;6.93;;;;;;;;;;5012681;28;20022;-67
2022/09/07 08:45:24;;;;;;;11.07;7.38;;;;;;;;;;5013723;28;20029;-67
2022/09/07 08:47:50;;;;;;;9.82;6.90;;;;;;;;;;5014793;28;20030;-67
2022/09/07 08:50:35;;;;;;;11.50;6.32;;;;;;;;;;5013513;28;20037;-67
2022/09/07 08:53:03;;;;;;;11.55;6.35;;;;;;;;;;5014112;28;20092;-67
2022/09/07 08:55:30;;;;;;;14.35;5.75;;;;;;;;;;5013475;28;20371;-67
2022/09/07 08:58:16;;;;;;;11.30;5.75;;;;;;;;;;5014526;28;20009;-67
2022/09/07 09:00:41;;;;;;;9.93;6.28;;;;;;;;;;5013145;28;20028;-67
2022/09/07 09:03:15;;;;;;;10.10;5.57;;;;;;;;;;5014565;28;20022;-67
2022/09/07 09:05:48;;;;;;;7.07;5.72;;;;;;;;;;5012825;28;20029;-67
2022/09/07 09:08:21;;;;;;;10.52;5.93;;;;;;;;;;5014412;28;20025;-67
2022/09/07 09:11:01;;;;;;;8.82;5.25;;;;;;;;;;5013808;28;20382;-67
2022/09/07 09:13:30;;;;;;;12.35;5.03;;;;;;;;;;5013359;28;20018;-67
2022/09/07 09:16:04;;;;;;;10.60;5.85;;;;;;;;;;5013937;28;20113;-67
2022/09/07 09:18:44;;;;;;;15.63;5.63;;;;;;;;;;5012543;28;20103;-66
2022/09/07 09:21:17;;;;;;;7.10;5.05;;;;;;;;;;5014540;28;20018;-67
2022/09/07 09:23:43;;;;;;;9.50;5.22;;;;;;;;;;5013550;28;20021;-67
2022/09/07 09:26:24;;;;;;;10.63;5.78;;;;;;;;;;5013512;28;20390;-67
2022/09/07 09:28:50;;;;;;;10.50;5.20;;;;;;;;;;5012598;28;20056;-67
2022/09/07 09:31:20;;;;;;;11.85;5.80;;;;;;;;;;5013797;28;20567;-67
2022/09/07 09:34:17;;;;;;;33.63;6.70;;;;;;;;;;5012409;28;20053;-67
2022/09/07 09:36:44;;;;;;;8.68;5.15;;;;;;;;;;4990185;28;20061;-67
2022/09/07 09:39:28;;;;;;;10.73;5.25;;;;;;;;;;5013340;28;20022;-67
2022/09/07 09:41:55;;;;;;;11.63;4.80;;;;;;;;;;5013107;28;20064;-67
2022/09/07 09:44:21;;;;;;;12.82;6.25;;;;;;;;;;5012941;28;20026;-67
2022/09/07 09:46:47;;;;;;;11.93;6.25;;;;;;;;;;5013137;28;20382;-67
2022/09/07 09:49:21;;;;;;;10.57;6.57;;;;;;;;;;5012760;28;20313;-67
2022/09/07 09:51:51;;;;;;;6.80;2.83;;;;;;;;;;5013413;28;20029;-67
2022/09/07 09:54:16;;;;;;;;;;;;;;;;;;5012917;28;20029;-67
2022/09/07 09:56:43;;;;;;;10.27;3.53;;;;;;;;;;5012100;28;19910;-67
2022/09/07 09:59:17;;;;;;;10.65;3.22;;;;;;;;;;5013759;28;20618;-67
2022/09/07 10:01:44;;;;;;;6.93;3.03;;;;;;;;;;5012908;28;20041;-67
2022/09/07 10:04:22;;;;;;;10.48;3.13;;;;;;;;;;5012027;28;20060;-67
2022/09/07 10:07:04;;;;;;;11.15;4.78;;;;;;;;;;5010993;28;20025;-67
2022/09/07 10:09:34;;;;;;;6.10;2.58;;;;;;;;;;5006850;28;20045;-67
2022/09/07 10:12:01;;;;;;;9.43;2.83;;;;;;;;;;5011956;28;20056;-66
2022/09/07 10:14:27;;;;;;;6.55;2.63;;;;;;;;;;5013110;28;20013;-67
2022/09/07 10:16:52;;;;;;;3.80;2.20;;;;;;;;;;5011980;28;20429;-67
2022/09/07 10:19:37;;;;;;;4.97;2.38;;;;;;;;;;5012382;28;20045;-67
2022/09/07 10:22:04;;;;;;;6.57;2.53;;;;;;;;;;5012717;28;20026;-67
2022/09/07 10:24:32;;;;;;;4.30;2.00;;;;;;;;;;5012447;28;20018;-67
2022/09/07 10:26:57;;;;;;;4.20;2.38;;;;;;;;;;5010999;28;20381;-67
2022/09/07 10:29:28;;;;;;;3.58;2.22;;;;;;;;;;5021429;28;20041;-67
2022/09/07 10:32:12;;;;;;;4.95;1.88;;;;;;;;;;5012618;28;20033;-67
2022/09/07 10:34:46;;;;;;;7.88;2.33;;;;;;;;;;5010614;28;20022;-67
2022/09/07 10:37:17;;;;;;;6.00;2.42;;;;;;;;;;5010759;28;20378;-67
2022/09/07 10:39:56;;;;;;;3.65;1.80;;;;;;;;;;5012423;28;20080;-67
2022/09/07 10:42:27;;;;;;;7.18;1.60;;;;;;;;;;5011348;28;21133;-67
2022/09/07 10:45:02;;;;;;;3.50;1.85;;;;;;;;;;5012278;28;20034;-67
2022/09/07 10:47:33;;;;;;;5.50;1.50;;;;;;;;;;5011490;28;20117;-67
2022/09/07 10:50:04;;;;;;;5.75;1.35;;;;;;;;;;5012104;28;20057;-67
2022/09/07 10:52:48;;;;;;;7.15;1.98;;;;;;;;;;5012297;28;20017;-67
2022/09/07 10:55:25;;;;;;;0.73;0.43;;;;;;;;;;5010260;28;20052;-67
2022/09/07 10:58:01;;;;;;;3.88;1.50;;;;;;;;;;5011490;28;20386;-68
2022/09/07 11:00:30;;;;;;;6.53;1.52;;;;;;;;;;5012614;28;20478;-67
2022/09/07 11:03:11;;;;;;;7.65;1.30;;;;;;;;;;5011754;28;20411;-67
2022/09/07 11:05:54;;;;;;;9.80;1.50;;;;;;;;;;5006091;28;20022;-67
2022/09/07 11:08:32;;;;;;;5.28;1.70;;;;;;;;;;5011980;28;20084;-67
2022/09/07 11:11:10;;;;;;;6.38;1.80;;;;;;;;;;5009572;28;20109;-68
2022/09/07 11:13:39;;;;;;;5.40;2.13;;;;;;;;;;5010611;28;20017;-67
2022/09/07 11:16:06;;;;;;;7.68;2.17;;;;;;;;;;5011434;28;20096;-68
2022/09/07 11:18:35;;;;;;;6.85;2.15;;;;;;;;;;5010993;28;20026;-68
2022/09/07 11:21:02;;;;;;;7.78;1.35;;;;;;;;;;5011910;28;20018;-68
2022/09/07 11:23:31;;;;;;;7.28;2.03;;;;;;;;;;5010480;28;20025;-67
2022/09/07 11:26:11;;;;;;;6.88;1.45;;;;;;;;;;5010375;28;20060;-68
2022/09/07 11:28:42;;;;;;;3.40;1.30;;;;;;;;;;5011210;28;20097;-68
2022/09/07 11:31:14;;;;;;;7.28;1.60;;;;;;;;;;5011308;28;20451;-68
2022/09/07 11:33:48;;;;;;;5.43;1.25;;;;;;;;;;5011452;28;20026;-70
2022/09/07 11:36:15;;;;;;;4.55;1.55;;;;;;;;;;5010867;28;20080;-68
2022/09/07 11:38:52;;;;;;;7.57;1.52;;;;;;;;;;5010077;28;20052;-68
2022/09/07 11:41:19;;;;;;;3.85;1.40;;;;;;;;;;5010944;28;20026;-68
2022/09/07 11:44:05;;;;;;;5.78;1.77;;;;;;;;;;5010915;28;20022;-68
2022/09/07 11:46:33;;;;;;;10.45;2.30;;;;;;;;;;5000536;28;20033;-68
2022/09/07 11:48:58;;;;;;;4.68;1.38;;;;;;;;;;5011070;28;20068;-68
2022/09/07 11:51:38;;;;;;;10.27;1.95;;;;;;;;;;5011338;28;20033;-67
2022/09/07 11:54:03;;;;;;;;;;;;;;;;;;5010127;28;20088;-67
2022/09/07 11:56:31;;;;;;;5.53;1.75;;;;;;;;;;5006213;28;19913;-68
2022/09/07 11:59:01;;;;;;;4.63;1.65;;;;;;;;;;5007985;28;20030;-67
2022/09/07 12:01:45;;;;;;;2.58;1.50;;;;;;;;;;5010638;28;20014;-68
2022/09/07 12:04:34;;;;;;;4.70;1.50;;;;;;;;;;5010317;28;20033;-68
2022/09/07 12:06:59;;;;;;;4.43;1.52;;;;;;;;;;5010570;28;20512;-68
2022/09/07 12:09:34;;;;;;;3.33;1.42;;;;;;;;;;5010910;28;20096;-68
2022/09/07 12:12:04;;;;;;;3.10;1.88;;;;;;;;;;5010265;28;20029;-67
2022/09/07 12:14:36;;;;;;;3.97;1.98;;;;;;;;;;5009758;28;20010;-68
2022/09/07 12:17:22;;;;;;;4.00;1.63;;;;;;;;;;5009628;28;20025;-68
2022/09/07 12:20:07;;;;;;;5.47;1.98;;;;;;;;;;5010936;28;20577;-68
2022/09/07 12:22:33;;;;;;;9.07;3.75;;;;;;;;;;5011116;28;20057;-68
2022/09/07 12:25:27;;;;;;;5.10;1.63;;;;;;;;;;5019859;22;20517;-89
2022/09/07 12:33:42;;;;;;;6.75;2.47;;;;;;;;;;5016744;28;20028;-90
2022/09/07 12:36:39;;;;;;;;;;;;;;;;;;;;;
2022/09/07 12:39:24;;;;;;;5.75;2.40;;;;;;;;;;5011673;28;20033;-89
2022/09/07 12:42:05;;;;;;;5.38;2.67;;;;;;;;;;4993924;28;20489;-92
2022/09/07 12:44:32;;;;;;;11.57;2.35;;;;;;;;;;5008995;28;20024;-91
2022/09/07 12:47:09;;;;;;;9.13;2.78;;;;;;;;;;5007226;28;20525;-90
2022/09/07 12:49:42;;;;;;;6.65;3.13;;;;;;;;;;4992988;28;20062;-89
2022/09/07 12:52:13;;;;;;;7.28;2.70;;;;;;;;;;4999985;28;20036;-90
2022/09/07 12:54:42;;;;;;;5.30;2.50;;;;;;;;;;4994497;28;20397;-91
2022/09/07 12:57:26;;;;;;;5.82;2.50;;;;;;;;;;5011537;28;20034;-90
2022/09/07 12:59:57;;;;;;;5.50;2.53;;;;;;;;;;4999942;28;20160;-89
2022/09/07 13:02:44;;;;;;;8.35;2.65;;;;;;;;;;4993071;28;20113;-90
2022/09/07 13:05:31;;;;;;;7.35;2.72;;;;;;;;;;5002708;28;20076;-91
2022/09/07 13:08:18;;;;;;;7.47;2.55;;;;;;;;;;5019517;23;20136;-91
2022/09/07 13:10:43;;;;;;;4.03;2.13;;;;;;;;;;5020340;28;20032;-90
2022/09/07 13:13:17;;;;;;;7.60;2.58;;;;;;;;;;5023025;28;20505;-89
2022/09/07 13:15:50;;;;;;;8.98;2.22;;;;;;;;;;5022085;28;20132;-89
2022/09/07 13:18:25;;;;;;;5.80;2.00;;;;;;;;;;5009911;28;20072;-88
2022/09/07 13:21:06;;;;;;;10.23;2.58;;;;;;;;;;5030832;28;20025;-90
2022/09/07 13:23:31;;;;;;;11.93;2.20;;;;;;;;;;5013532;28;20032;-89
2022/09/07 13:25:58;;;;;;;9.15;2.50;;;;;;;;;;5022277;28;20017;-90
2022/09/07 13:28:29;;;;;;;6.40;1.92;;;;;;;;;;5044692;28;20032;-89
2022/09/07 13:30:55;;;;;;;5.78;1.73;;;;;;;;;;5015894;28;20515;-90
2022/09/07 13:33:23;;;;;;;5.03;1.85;;;;;;;;;;5036332;28;20017;-88
2022/09/07 13:35:51;;;;;;;6.70;2.40;;;;;;;;;;5036694;28;20021;-89
2022/09/07 13:38:16;;;;;;;9.90;1.35;;;;;;;;;;5027450;28;20551;-88
2022/09/07 13:40:44;;;;;;;6.63;1.60;;;;;;;;;;5037438;28;20025;-91
2022/09/07 13:43:15;;;;;;;14.55;2.47;;;;;;;;;;5026493;28;20025;-89
2022/09/07 13:45:54;;;;;;;10.27;1.65;;;;;;;;;;5034335;28;20465;-89
2022/09/07 13:48:36;;;;;;;3.47;1.40;;;;;;;;;;5028262;28;20374;-90
2022/09/07 13:51:07;;;;;;;4.10;1.48;;;;;;;;;;5017117;28;20079;-92
2022/09/07 13:53:32;;;;;;;4.90;1.55;;;;;;;;;;5022346;28;20021;-89
2022/09/07 13:56:00;;;;;;;6.72;1.80;;;;;;;;;;5035983;28;20103;-90
2022/09/07 13:58:34;;;;;;;3.78;1.40;;;;;;;;;;5019860;28;20017;-89
2022/09/07 14:01:01;;;;;;;3.22;1.25;;;;;;;;;;5015475;28;20379;-89
2022/09/07 14:03:29;;;;;;;5.90;1.55;;;;;;;;;;5015842;28;20097;-89
2022/09/07 14:06:13;;;;;;;4.03;1.10;;;;;;;;;;5015479;28;20022;-89
2022/09/07 14:08:39;;;;;;;3.97;1.20;;;;;;;;;;5015826;28;20022;-89
2022/09/07 14:11:15;;;;;;;5.60;1.60;;;;;;;;;;5034538;28;20029;-90
2022/09/07 14:13:41;;;;;;;8.10;1.42;;;;;;;;;;5023576;28;20021;-89
2022/09/07 14:16:07;;;;;;;3.37;1.40;;;;;;;;;;5024451;28;20029;-89
2022/09/07 14:18:32;;;;;;;7.55;1.45;;;;;;;;;;5021275;28;20275;-89
2022/09/07 14:20:57;;;;;;;5.85;1.00;;;;;;;;;;5038237;28;20028;-88
2022/09/07 14:23:30;;;;;;;6.25;1.20;;;;;;;;;;5027547;28;20365;-88
2022/09/07 14:26:12;;;;;;;4.55;1.17;;;;;;;;;;5036546;28;20079;-88
2022/09/07 14:28:38;;;;;;;3.47;1.13;;;;;;;;;;5013584;28;20391;-89
2022/09/07 14:31:04;;;;;;;4.45;1.45;;;;;;;;;;5024106;28;20032;-89
2022/09/07 14:33:30;;;;;;;5.88;1.48;;;;;;;;;;5025301;28;20021;-89
2022/09/07 14:35:56;;;;;;;2.67;1.52;;;;;;;;;;5033363;28;20014;-89
2022/09/07 14:38:24;;;;;;;4.20;1.50;;;;;;;;;;5021825;28;20056;-90
2022/09/07 14:40:53;;;;;;;3.88;1.23;;;;;;;;;;5030139;28;20029;-90
2022/09/07 14:43:30;;;;;;;5.75;1.40;;;;;;;;;;5017761;28;20026;-90
2022/09/07 14:46:25;;;;;;;3.03;1.13;;;;;;;;;;5024965;28;20021;-90
2022/09/07 14:48:52;;;;;;;4.40;1.00;;;;;;;;;;5011154;28;20048;-90
2022/09/07 14:51:19;;;;;;;8.75;1.27;;;;;;;;;;5006754;28;20037;-91
2022/09/07 14:53:51;;;;;;;4.85;1.10;;;;;;;;;;5002750;28;20136;-89
2022/09/07 14:56:18;;;;;;;6.75;1.20;;;;;;;;;;5029752;28;20025;-86
2022/09/07 14:58:44;;;;;;;4.60;1.08;;;;;;;;;;5003450;28;20022;-88
2022/09/07 15:01:12;;;;;;;4.05;1.67;;;;;;;;;;5008273;28;20079;-88
2022/09/07 15:03:37;;;;;;;5.45;1.60;;;;;;;;;;5020350;28;20080;-88